sensor_id;sensor_type;location;lat;lon;timestamp;P1;durP1;ratioP1;P2;durP2;ratioP2
15708;SDS011;7954;51.914;8.420;2023-05-10T00:01:34;6.17;;;5.70;;
15708;SDS011;7954;51.914;8.420;2023-05-10T00:04:02;7.07;;;6.47;;
15708;SDS011;7954;51.914;8.420;2023-05-10T00:06:30;5.97;;;5.57;;
15708;SDS011;7954;51.914;8.420;2023-05-10T00:08:58;6.07;;;5.67;;
15708;SDS011;7954;51.914;8.420;2023-05-10T00:11:26;5.60;;;5.20;;
15708;SDS011;7954;51.914;8.420;2023-05-10T00:13:54;6.07;;;5.67;;
15708;SDS011;7954;51.914;8.420;2023-05-10T00:16:23;6.67;;;6.07;;
15708;SDS011;7954;51.914;8.420;2023-05-10T00:18:52;6.40;;;5.90;;
15708;SDS011;7954;51.914;8.420;2023-05-10T00:21:19;6.30;;;5.90;;
15708;SDS011;7954;51.914;8.420;2023-05-10T00:23:47;6.63;;;6.13;;
15708;SDS011;7954;51.914;8.420;2023-05-10T00:26:15;6.60;;;6.07;;
15708;SDS011;7954;51.914;8.420;2023-05-10T00:28:45;5.77;;;5.37;;
15708;SDS011;7954;51.914;8.420;2023-05-10T00:31:13;6.43;;;5.93;;
15708;SDS011;7954;51.914;8.420;2023-05-10T00:33:42;6.63;;;6.13;;
15708;SDS011;7954;51.914;8.420;2023-05-10T00:36:10;6.30;;;5.90;;
15708;SDS011;7954;51.914;8.420;2023-05-10T00:38:38;6.10;;;5.70;;
15708;SDS011;7954;51.914;8.420;2023-05-10T00:41:06;5.53;;;5.13;;
15708;SDS011;7954;51.914;8.420;2023-05-10T00:43:34;6.13;;;5.73;;
15708;SDS011;7954;51.914;8.420;2023-05-10T00:46:02;6.23;;;5.73;;
15708;SDS011;7954;51.914;8.420;2023-05-10T00:48:31;6.67;;;6.17;;
15708;SDS011;7954;51.914;8.420;2023-05-10T00:51:01;6.30;;;5.90;;
15708;SDS011;7954;51.914;8.420;2023-05-10T00:53:30;6.80;;;6.20;;
15708;SDS011;7954;51.914;8.420;2023-05-10T00:55:59;6.33;;;5.93;;
15708;SDS011;7954;51.914;8.420;2023-05-10T00:58:27;6.40;;;5.90;;
15708;SDS011;7954;51.914;8.420;2023-05-10T01:00:57;6.90;;;6.40;;
15708;SDS011;7954;51.914;8.420;2023-05-10T01:03:26;6.20;;;5.73;;
15708;SDS011;7954;51.914;8.420;2023-05-10T01:05:54;6.60;;;6.13;;
15708;SDS011;7954;51.914;8.420;2023-05-10T01:08:24;7.43;;;6.10;;
15708;SDS011;7954;51.914;8.420;2023-05-10T01:10:53;7.37;;;6.77;;
15708;SDS011;7954;51.914;8.420;2023-05-10T01:13:25;6.33;;;5.83;;
15708;SDS011;7954;51.914;8.420;2023-05-10T01:15:59;6.50;;;6.00;;
15708;SDS011;7954;51.914;8.420;2023-05-10T01:18:29;7.00;;;6.50;;
15708;SDS011;7954;51.914;8.420;2023-05-10T01:21:00;7.37;;;6.67;;
15708;SDS011;7954;51.914;8.420;2023-05-10T01:23:42;8.03;;;7.40;;
15708;SDS011;7954;51.914;8.420;2023-05-10T01:26:43;5.40;;;5.00;;
15708;SDS011;7954;51.914;8.420;2023-05-10T01:29:49;5.33;;;4.93;;
15708;SDS011;7954;51.914;8.420;2023-05-10T01:32:45;4.57;;;4.27;;
15708;SDS011;7954;51.914;8.420;2023-05-10T01:35:19;4.73;;;4.33;;
15708;SDS011;7954;51.914;8.420;2023-05-10T01:37:57;2.40;;;2.30;;
15708;SDS011;7954;51.914;8.420;2023-05-10T01:40:32;2.60;;;2.40;;
15708;SDS011;7954;51.914;8.420;2023-05-10T01:43:08;2.87;;;2.67;;
15708;SDS011;7954;51.914;8.420;2023-05-10T01:45:45;3.43;;;3.13;;
15708;SDS011;7954;51.914;8.420;2023-05-10T01:48:20;3.87;;;3.47;;
15708;SDS011;7954;51.914;8.420;2023-05-10T01:50:50;3.10;;;2.80;;
15708;SDS011;7954;51.914;8.420;2023-05-10T01:53:19;2.80;;;2.60;;
15708;SDS011;7954;51.914;8.420;2023-05-10T01:55:50;3.30;;;3.10;;
15708;SDS011;7954;51.914;8.420;2023-05-10T01:58:22;3.10;;;2.90;;
15708;SDS011;7954;51.914;8.420;2023-05-10T02:01:01;3.60;;;3.30;;
15708;SDS011;7954;51.914;8.420;2023-05-10T02:03:33;3.80;;;3.50;;
15708;SDS011;7954;51.914;8.420;2023-05-10T02:06:04;4.03;;;3.73;;
15708;SDS011;7954;51.914;8.420;2023-05-10T02:08:33;4.40;;;4.00;;
15708;SDS011;7954;51.914;8.420;2023-05-10T02:11:03;4.60;;;4.20;;
15708;SDS011;7954;51.914;8.420;2023-05-10T02:13:32;4.13;;;3.83;;
15708;SDS011;7954;51.914;8.420;2023-05-10T02:16:04;4.90;;;4.50;;
15708;SDS011;7954;51.914;8.420;2023-05-10T02:18:34;5.13;;;4.20;;
15708;SDS011;7954;51.914;8.420;2023-05-10T02:21:03;4.30;;;3.90;;
15708;SDS011;7954;51.914;8.420;2023-05-10T02:23:31;4.50;;;4.07;;
15708;SDS011;7954;51.914;8.420;2023-05-10T02:26:01;4.93;;;4.53;;
15708;SDS011;7954;51.914;8.420;2023-05-10T02:28:32;4.87;;;4.47;;
15708;SDS011;7954;51.914;8.420;2023-05-10T02:31:01;4.73;;;4.33;;
15708;SDS011;7954;51.914;8.420;2023-05-10T02:33:29;4.83;;;4.43;;
15708;SDS011;7954;51.914;8.420;2023-05-10T02:36:00;5.27;;;4.83;;
15708;SDS011;7954;51.914;8.420;2023-05-10T02:38:29;6.50;;;5.17;;
15708;SDS011;7954;51.914;8.420;2023-05-10T02:40:59;6.17;;;5.67;;
15708;SDS011;7954;51.914;8.420;2023-05-10T02:43:29;5.40;;;5.00;;
15708;SDS011;7954;51.914;8.420;2023-05-10T02:45:58;6.10;;;5.60;;
15708;SDS011;7954;51.914;8.420;2023-05-10T02:48:27;6.87;;;6.27;;
15708;SDS011;7954;51.914;8.420;2023-05-10T02:50:55;6.80;;;6.20;;
15708;SDS011;7954;51.914;8.420;2023-05-10T02:53:31;6.17;;;5.67;;
15708;SDS011;7954;51.914;8.420;2023-05-10T02:56:04;6.93;;;6.33;;
15708;SDS011;7954;51.914;8.420;2023-05-10T02:58:37;5.70;;;5.20;;
15708;SDS011;7954;51.914;8.420;2023-05-10T03:01:05;7.37;;;6.73;;
15708;SDS011;7954;51.914;8.420;2023-05-10T03:03:34;7.03;;;6.40;;
15708;SDS011;7954;51.914;8.420;2023-05-10T03:06:02;7.73;;;7.03;;
15708;SDS011;7954;51.914;8.420;2023-05-10T03:08:32;7.57;;;6.90;;
15708;SDS011;7954;51.914;8.420;2023-05-10T03:11:05;8.80;;;7.93;;
15708;SDS011;7954;51.914;8.420;2023-05-10T03:13:44;8.03;;;7.33;;
15708;SDS011;7954;51.914;8.420;2023-05-10T03:16:22;7.60;;;7.00;;
15708;SDS011;7954;51.914;8.420;2023-05-10T03:18:56;8.43;;;7.63;;
15708;SDS011;7954;51.914;8.420;2023-05-10T03:21:29;7.83;;;7.13;;
15708;SDS011;7954;51.914;8.420;2023-05-10T03:24:02;8.13;;;7.37;;
15708;SDS011;7954;51.914;8.420;2023-05-10T03:26:35;7.73;;;7.03;;
15708;SDS011;7954;51.914;8.420;2023-05-10T03:29:04;7.00;;;6.40;;
15708;SDS011;7954;51.914;8.420;2023-05-10T03:31:34;6.90;;;6.30;;
15708;SDS011;7954;51.914;8.420;2023-05-10T03:34:02;7.20;;;6.50;;
15708;SDS011;7954;51.914;8.420;2023-05-10T03:36:30;6.33;;;5.73;;
15708;SDS011;7954;51.914;8.420;2023-05-10T03:39:00;7.07;;;6.33;;
15708;SDS011;7954;51.914;8.420;2023-05-10T03:41:28;5.30;;;4.80;;
15708;SDS011;7954;51.914;8.420;2023-05-10T03:43:57;6.07;;;5.47;;
15708;SDS011;7954;51.914;8.420;2023-05-10T03:46:25;5.70;;;5.20;;
15708;SDS011;7954;51.914;8.420;2023-05-10T03:48:53;7.00;;;6.40;;
15708;SDS011;7954;51.914;8.420;2023-05-10T03:51:23;4.10;;;3.80;;
15708;SDS011;7954;51.914;8.420;2023-05-10T03:53:54;3.70;;;3.40;;
15708;SDS011;7954;51.914;8.420;2023-05-10T03:56:24;3.80;;;3.43;;
15708;SDS011;7954;51.914;8.420;2023-05-10T03:58:52;3.93;;;3.60;;
15708;SDS011;7954;51.914;8.420;2023-05-10T04:01:20;6.87;;;6.17;;
15708;SDS011;7954;51.914;8.420;2023-05-10T04:03:47;4.00;;;3.67;;
15708;SDS011;7954;51.914;8.420;2023-05-10T04:06:17;2.60;;;2.40;;
15708;SDS011;7954;51.914;8.420;2023-05-10T04:08:45;3.97;;;3.53;;
15708;SDS011;7954;51.914;8.420;2023-05-10T04:11:12;2.77;;;2.27;;
15708;SDS011;7954;51.914;8.420;2023-05-10T04:13:42;4.67;;;4.27;;
15708;SDS011;7954;51.914;8.420;2023-05-10T04:16:10;4.03;;;3.30;;
15708;SDS011;7954;51.914;8.420;2023-05-10T04:18:38;4.10;;;3.80;;
15708;SDS011;7954;51.914;8.420;2023-05-10T04:21:10;3.20;;;2.90;;
15708;SDS011;7954;51.914;8.420;2023-05-10T04:23:38;3.40;;;2.90;;
15708;SDS011;7954;51.914;8.420;2023-05-10T04:26:07;3.17;;;2.90;;
15708;SDS011;7954;51.914;8.420;2023-05-10T04:28:35;5.83;;;4.67;;
15708;SDS011;7954;51.914;8.420;2023-05-10T04:31:05;5.70;;;4.33;;
15708;SDS011;7954;51.914;8.420;2023-05-10T04:33:36;5.40;;;5.00;;
15708;SDS011;7954;51.914;8.420;2023-05-10T04:36:05;6.47;;;5.97;;
15708;SDS011;7954;51.914;8.420;2023-05-10T04:38:33;6.53;;;6.03;;
15708;SDS011;7954;51.914;8.420;2023-05-10T04:41:04;5.27;;;4.77;;
15708;SDS011;7954;51.914;8.420;2023-05-10T04:43:33;4.87;;;4.47;;
15708;SDS011;7954;51.914;8.420;2023-05-10T04:46:02;5.13;;;4.63;;
15708;SDS011;7954;51.914;8.420;2023-05-10T04:48:32;5.13;;;4.73;;
15708;SDS011;7954;51.914;8.420;2023-05-10T04:51:00;5.07;;;4.67;;
15708;SDS011;7954;51.914;8.420;2023-05-10T04:53:30;4.63;;;4.33;;
15708;SDS011;7954;51.914;8.420;2023-05-10T04:55:58;7.03;;;6.43;;
15708;SDS011;7954;51.914;8.420;2023-05-10T04:58:26;5.70;;;5.30;;
15708;SDS011;7954;51.914;8.420;2023-05-10T05:00:54;5.30;;;4.80;;
15708;SDS011;7954;51.914;8.420;2023-05-10T05:03:23;4.57;;;4.20;;
15708;SDS011;7954;51.914;8.420;2023-05-10T05:05:52;4.03;;;3.63;;
15708;SDS011;7954;51.914;8.420;2023-05-10T05:08:20;4.57;;;4.27;;
15708;SDS011;7954;51.914;8.420;2023-05-10T05:10:49;2.60;;;2.40;;
15708;SDS011;7954;51.914;8.420;2023-05-10T05:13:18;2.80;;;2.60;;
15708;SDS011;7954;51.914;8.420;2023-05-10T05:15:46;2.83;;;2.63;;
15708;SDS011;7954;51.914;8.420;2023-05-10T05:18:14;2.60;;;2.40;;
15708;SDS011;7954;51.914;8.420;2023-05-10T05:20:44;4.50;;;3.70;;
15708;SDS011;7954;51.914;8.420;2023-05-10T05:23:11;3.50;;;3.20;;
15708;SDS011;7954;51.914;8.420;2023-05-10T05:25:39;2.77;;;2.57;;
15708;SDS011;7954;51.914;8.420;2023-05-10T05:28:08;2.47;;;2.27;;
15708;SDS011;7954;51.914;8.420;2023-05-10T05:30:36;2.37;;;2.17;;
15708;SDS011;7954;51.914;8.420;2023-05-10T05:33:05;2.70;;;2.40;;
15708;SDS011;7954;51.914;8.420;2023-05-10T05:35:34;2.53;;;2.33;;
15708;SDS011;7954;51.914;8.420;2023-05-10T05:38:04;3.70;;;3.40;;
15708;SDS011;7954;51.914;8.420;2023-05-10T05:40:32;2.93;;;2.70;;
15708;SDS011;7954;51.914;8.420;2023-05-10T05:43:00;3.00;;;2.80;;
15708;SDS011;7954;51.914;8.420;2023-05-10T05:45:28;2.53;;;2.33;;
15708;SDS011;7954;51.914;8.420;2023-05-10T05:47:56;2.60;;;2.40;;
15708;SDS011;7954;51.914;8.420;2023-05-10T05:50:24;2.23;;;2.07;;
15708;SDS011;7954;51.914;8.420;2023-05-10T05:52:52;2.73;;;2.40;;
15708;SDS011;7954;51.914;8.420;2023-05-10T05:55:22;3.43;;;2.70;;
15708;SDS011;7954;51.914;8.420;2023-05-10T05:57:50;2.80;;;2.60;;
15708;SDS011;7954;51.914;8.420;2023-05-10T06:00:21;2.90;;;2.70;;
15708;SDS011;7954;51.914;8.420;2023-05-10T06:02:49;2.50;;;2.30;;
15708;SDS011;7954;51.914;8.420;2023-05-10T06:05:19;2.67;;;2.47;;
15708;SDS011;7954;51.914;8.420;2023-05-10T06:07:47;3.17;;;2.87;;
15708;SDS011;7954;51.914;8.420;2023-05-10T06:10:18;3.90;;;3.60;;
15708;SDS011;7954;51.914;8.420;2023-05-10T06:12:47;3.00;;;2.80;;
15708;SDS011;7954;51.914;8.420;2023-05-10T06:15:16;3.23;;;2.93;;
15708;SDS011;7954;51.914;8.420;2023-05-10T06:17:47;3.40;;;2.67;;
15708;SDS011;7954;51.914;8.420;2023-05-10T06:20:17;3.73;;;3.43;;
15708;SDS011;7954;51.914;8.420;2023-05-10T06:22:45;2.97;;;2.77;;
15708;SDS011;7954;51.914;8.420;2023-05-10T06:25:14;3.00;;;2.60;;
15708;SDS011;7954;51.914;8.420;2023-05-10T06:27:44;2.90;;;2.70;;
15708;SDS011;7954;51.914;8.420;2023-05-10T06:30:20;2.70;;;2.50;;
15708;SDS011;7954;51.914;8.420;2023-05-10T06:32:49;3.40;;;3.10;;
15708;SDS011;7954;51.914;8.420;2023-05-10T06:35:20;2.30;;;2.20;;
15708;SDS011;7954;51.914;8.420;2023-05-10T06:37:48;2.47;;;2.27;;
15708;SDS011;7954;51.914;8.420;2023-05-10T06:40:17;3.60;;;2.23;;
15708;SDS011;7954;51.914;8.420;2023-05-10T06:42:45;2.67;;;2.43;;
15708;SDS011;7954;51.914;8.420;2023-05-10T06:45:13;2.47;;;2.27;;
15708;SDS011;7954;51.914;8.420;2023-05-10T06:47:43;2.60;;;2.37;;
15708;SDS011;7954;51.914;8.420;2023-05-10T06:50:12;2.50;;;2.30;;
15708;SDS011;7954;51.914;8.420;2023-05-10T06:52:40;3.07;;;2.80;;
15708;SDS011;7954;51.914;8.420;2023-05-10T06:55:09;2.83;;;2.53;;
15708;SDS011;7954;51.914;8.420;2023-05-10T06:57:38;3.37;;;3.07;;
15708;SDS011;7954;51.914;8.420;2023-05-10T07:00:06;2.70;;;2.50;;
15708;SDS011;7954;51.914;8.420;2023-05-10T07:02:36;4.37;;;3.97;;
15708;SDS011;7954;51.914;8.420;2023-05-10T07:05:06;7.00;;;4.77;;
15708;SDS011;7954;51.914;8.420;2023-05-10T07:07:35;7.13;;;5.03;;
15708;SDS011;7954;51.914;8.420;2023-05-10T07:10:03;8.00;;;6.67;;
15708;SDS011;7954;51.914;8.420;2023-05-10T07:12:32;9.37;;;6.80;;
15708;SDS011;7954;51.914;8.420;2023-05-10T07:15:00;8.57;;;6.43;;
15708;SDS011;7954;51.914;8.420;2023-05-10T07:17:29;9.47;;;7.43;;
15708;SDS011;7954;51.914;8.420;2023-05-10T07:19:57;9.57;;;7.23;;
15708;SDS011;7954;51.914;8.420;2023-05-10T07:22:26;7.37;;;6.67;;
15708;SDS011;7954;51.914;8.420;2023-05-10T07:24:54;10.27;;;7.20;;
15708;SDS011;7954;51.914;8.420;2023-05-10T07:27:22;9.17;;;7.33;;
15708;SDS011;7954;51.914;8.420;2023-05-10T07:29:50;10.30;;;8.13;;
15708;SDS011;7954;51.914;8.420;2023-05-10T07:32:18;7.63;;;6.83;;
15708;SDS011;7954;51.914;8.420;2023-05-10T07:34:46;10.70;;;7.13;;
15708;SDS011;7954;51.914;8.420;2023-05-10T07:37:15;8.20;;;6.93;;
15708;SDS011;7954;51.914;8.420;2023-05-10T07:39:45;9.27;;;7.37;;
15708;SDS011;7954;51.914;8.420;2023-05-10T07:42:14;9.47;;;7.37;;
15708;SDS011;7954;51.914;8.420;2023-05-10T07:44:41;8.43;;;6.83;;
15708;SDS011;7954;51.914;8.420;2023-05-10T07:47:11;8.13;;;7.33;;
15708;SDS011;7954;51.914;8.420;2023-05-10T07:49:40;8.23;;;7.43;;
15708;SDS011;7954;51.914;8.420;2023-05-10T07:52:08;7.93;;;7.07;;
15708;SDS011;7954;51.914;8.420;2023-05-10T07:54:36;8.37;;;7.37;;
15708;SDS011;7954;51.914;8.420;2023-05-10T07:57:05;8.90;;;8.10;;
15708;SDS011;7954;51.914;8.420;2023-05-10T07:59:33;8.83;;;7.90;;
15708;SDS011;7954;51.914;8.420;2023-05-10T08:02:01;8.27;;;7.47;;
15708;SDS011;7954;51.914;8.420;2023-05-10T08:04:29;9.00;;;8.17;;
15708;SDS011;7954;51.914;8.420;2023-05-10T08:06:57;9.13;;;8.30;;
15708;SDS011;7954;51.914;8.420;2023-05-10T08:09:25;9.27;;;8.47;;
15708;SDS011;7954;51.914;8.420;2023-05-10T08:11:53;8.97;;;8.17;;
15708;SDS011;7954;51.914;8.420;2023-05-10T08:14:22;8.93;;;8.13;;
15708;SDS011;7954;51.914;8.420;2023-05-10T08:16:51;9.77;;;8.77;;
15708;SDS011;7954;51.914;8.420;2023-05-10T08:19:19;9.33;;;8.43;;
15708;SDS011;7954;51.914;8.420;2023-05-10T08:21:49;11.20;;;10.10;;
15708;SDS011;7954;51.914;8.420;2023-05-10T08:24:17;10.93;;;9.83;;
15708;SDS011;7954;51.914;8.420;2023-05-10T08:26:45;11.73;;;10.63;;
15708;SDS011;7954;51.914;8.420;2023-05-10T08:29:15;11.33;;;10.23;;
15708;SDS011;7954;51.914;8.420;2023-05-10T08:31:46;12.17;;;10.87;;
15708;SDS011;7954;51.914;8.420;2023-05-10T08:34:14;14.30;;;12.00;;
15708;SDS011;7954;51.914;8.420;2023-05-10T08:36:42;10.93;;;9.90;;
15708;SDS011;7954;51.914;8.420;2023-05-10T08:39:10;10.47;;;9.47;;
15708;SDS011;7954;51.914;8.420;2023-05-10T08:41:52;9.50;;;8.60;;
15708;SDS011;7954;51.914;8.420;2023-05-10T08:44:23;9.80;;;9.00;;
15708;SDS011;7954;51.914;8.420;2023-05-10T08:46:53;11.13;;;9.77;;
15708;SDS011;7954;51.914;8.420;2023-05-10T08:49:22;11.43;;;10.33;;
15708;SDS011;7954;51.914;8.420;2023-05-10T08:51:53;11.03;;;10.03;;
15708;SDS011;7954;51.914;8.420;2023-05-10T08:54:22;12.20;;;10.97;;
15708;SDS011;7954;51.914;8.420;2023-05-10T08:56:50;11.87;;;10.77;;
15708;SDS011;7954;51.914;8.420;2023-05-10T08:59:19;13.17;;;11.93;;
15708;SDS011;7954;51.914;8.420;2023-05-10T09:01:47;13.27;;;11.97;;
15708;SDS011;7954;51.914;8.420;2023-05-10T09:04:18;12.57;;;11.27;;
15708;SDS011;7954;51.914;8.420;2023-05-10T09:06:46;13.60;;;12.30;;
15708;SDS011;7954;51.914;8.420;2023-05-10T09:09:15;12.70;;;11.60;;
15708;SDS011;7954;51.914;8.420;2023-05-10T09:11:44;13.83;;;12.40;;
15708;SDS011;7954;51.914;8.420;2023-05-10T09:14:13;13.50;;;12.20;;
15708;SDS011;7954;51.914;8.420;2023-05-10T09:16:42;13.17;;;11.97;;
15708;SDS011;7954;51.914;8.420;2023-05-10T09:19:10;14.43;;;13.03;;
15708;SDS011;7954;51.914;8.420;2023-05-10T09:21:39;14.00;;;12.70;;
15708;SDS011;7954;51.914;8.420;2023-05-10T09:24:08;14.03;;;12.73;;
15708;SDS011;7954;51.914;8.420;2023-05-10T09:26:42;14.27;;;12.97;;
15708;SDS011;7954;51.914;8.420;2023-05-10T09:29:14;15.00;;;13.70;;
15708;SDS011;7954;51.914;8.420;2023-05-10T09:31:44;14.40;;;13.13;;
15708;SDS011;7954;51.914;8.420;2023-05-10T09:34:17;14.13;;;12.77;;
15708;SDS011;7954;51.914;8.420;2023-05-10T09:36:53;13.30;;;12.00;;
15708;SDS011;7954;51.914;8.420;2023-05-10T09:39:29;14.17;;;12.87;;
15708;SDS011;7954;51.914;8.420;2023-05-10T09:41:58;14.30;;;12.90;;
15708;SDS011;7954;51.914;8.420;2023-05-10T09:44:27;14.27;;;13.00;;
15708;SDS011;7954;51.914;8.420;2023-05-10T09:46:57;14.10;;;12.90;;
15708;SDS011;7954;51.914;8.420;2023-05-10T09:49:25;14.23;;;12.83;;
15708;SDS011;7954;51.914;8.420;2023-05-10T09:54:42;11.40;;;10.20;;
15708;SDS011;7954;51.914;8.420;2023-05-10T09:57:20;10.23;;;9.33;;
15708;SDS011;7954;51.914;8.420;2023-05-10T09:59:48;9.53;;;8.73;;
15708;SDS011;7954;51.914;8.420;2023-05-10T10:02:17;8.47;;;7.47;;
15708;SDS011;7954;51.914;8.420;2023-05-10T10:04:48;7.70;;;7.00;;
15708;SDS011;7954;51.914;8.420;2023-05-10T10:07:23;10.73;;;9.83;;
15708;SDS011;7954;51.914;8.420;2023-05-10T10:09:54;10.53;;;9.53;;
15708;SDS011;7954;51.914;8.420;2023-05-10T10:12:22;9.63;;;8.73;;
15708;SDS011;7954;51.914;8.420;2023-05-10T10:14:51;9.50;;;8.70;;
15708;SDS011;7954;51.914;8.420;2023-05-10T10:17:19;9.50;;;8.70;;
15708;SDS011;7954;51.914;8.420;2023-05-10T10:19:47;8.93;;;8.23;;
15708;SDS011;7954;51.914;8.420;2023-05-10T10:22:17;9.80;;;8.90;;
15708;SDS011;7954;51.914;8.420;2023-05-10T10:24:46;9.73;;;8.83;;
15708;SDS011;7954;51.914;8.420;2023-05-10T10:27:23;8.53;;;7.83;;
15708;SDS011;7954;51.914;8.420;2023-05-10T10:30:01;8.50;;;7.80;;
15708;SDS011;7954;51.914;8.420;2023-05-10T10:32:38;10.10;;;9.20;;
15708;SDS011;7954;51.914;8.420;2023-05-10T10:35:18;9.90;;;9.10;;
15708;SDS011;7954;51.914;8.420;2023-05-10T10:37:46;9.00;;;8.23;;
15708;SDS011;7954;51.914;8.420;2023-05-10T10:40:26;10.07;;;9.17;;
15708;SDS011;7954;51.914;8.420;2023-05-10T10:46:09;12.37;;;11.27;;
15708;SDS011;7954;51.914;8.420;2023-05-10T10:48:38;9.33;;;8.43;;
15708;SDS011;7954;51.914;8.420;2023-05-10T10:51:07;10.93;;;9.80;;
15708;SDS011;7954;51.914;8.420;2023-05-10T10:53:38;10.13;;;9.20;;
15708;SDS011;7954;51.914;8.420;2023-05-10T10:56:11;9.87;;;8.97;;
15708;SDS011;7954;51.914;8.420;2023-05-10T10:58:42;7.27;;;6.67;;
15708;SDS011;7954;51.914;8.420;2023-05-10T11:01:20;8.03;;;7.33;;
15708;SDS011;7954;51.914;8.420;2023-05-10T11:06:46;8.83;;;8.07;;
15708;SDS011;7954;51.914;8.420;2023-05-10T11:09:17;7.90;;;7.20;;
15708;SDS011;7954;51.914;8.420;2023-05-10T11:11:52;6.20;;;5.70;;
15708;SDS011;7954;51.914;8.420;2023-05-10T11:14:24;6.47;;;5.97;;
15708;SDS011;7954;51.914;8.420;2023-05-10T11:16:53;6.43;;;5.63;;
15708;SDS011;7954;51.914;8.420;2023-05-10T11:19:21;6.80;;;6.20;;
15708;SDS011;7954;51.914;8.420;2023-05-10T11:21:51;6.63;;;6.03;;
15708;SDS011;7954;51.914;8.420;2023-05-10T11:24:39;6.63;;;6.00;;
15708;SDS011;7954;51.914;8.420;2023-05-10T11:27:10;7.27;;;6.57;;
15708;SDS011;7954;51.914;8.420;2023-05-10T11:29:42;6.70;;;6.10;;
15708;SDS011;7954;51.914;8.420;2023-05-10T11:32:12;7.57;;;6.30;;
15708;SDS011;7954;51.914;8.420;2023-05-10T11:34:40;7.33;;;6.63;;
15708;SDS011;7954;51.914;8.420;2023-05-10T11:37:08;7.43;;;6.73;;
15708;SDS011;7954;51.914;8.420;2023-05-10T11:39:37;7.83;;;7.13;;
15708;SDS011;7954;51.914;8.420;2023-05-10T11:42:04;7.30;;;6.63;;
15708;SDS011;7954;51.914;8.420;2023-05-10T11:44:37;8.33;;;7.50;;
15708;SDS011;7954;51.914;8.420;2023-05-10T11:47:05;23.37;;;13.50;;
15708;SDS011;7954;51.914;8.420;2023-05-10T11:49:34;29.80;;;13.50;;
15708;SDS011;7954;51.914;8.420;2023-05-10T11:52:05;37.77;;;17.13;;
15708;SDS011;7954;51.914;8.420;2023-05-10T11:54:33;39.10;;;18.57;;
15708;SDS011;7954;51.914;8.420;2023-05-10T11:57:04;18.77;;;12.90;;
15708;SDS011;7954;51.914;8.420;2023-05-10T11:59:32;18.77;;;14.27;;
15708;SDS011;7954;51.914;8.420;2023-05-10T12:02:01;18.93;;;14.17;;
15708;SDS011;7954;51.914;8.420;2023-05-10T12:04:31;16.27;;;13.50;;
15708;SDS011;7954;51.914;8.420;2023-05-10T12:06:59;21.53;;;16.70;;
15708;SDS011;7954;51.914;8.420;2023-05-10T12:09:28;20.90;;;17.10;;
15708;SDS011;7954;51.914;8.420;2023-05-10T12:12:09;21.93;;;15.43;;
15708;SDS011;7954;51.914;8.420;2023-05-10T12:14:37;16.27;;;13.17;;
15708;SDS011;7954;51.914;8.420;2023-05-10T12:17:07;19.43;;;14.00;;
15708;SDS011;7954;51.914;8.420;2023-05-10T12:19:39;17.73;;;12.63;;
15708;SDS011;7954;51.914;8.420;2023-05-10T12:22:08;17.17;;;12.03;;
15708;SDS011;7954;51.914;8.420;2023-05-10T12:24:36;15.60;;;12.33;;
15708;SDS011;7954;51.914;8.420;2023-05-10T12:27:07;12.80;;;11.40;;
15708;SDS011;7954;51.914;8.420;2023-05-10T12:29:36;13.60;;;11.20;;
15708;SDS011;7954;51.914;8.420;2023-05-10T12:32:09;14.13;;;12.03;;
15708;SDS011;7954;51.914;8.420;2023-05-10T12:34:38;17.13;;;12.40;;
15708;SDS011;7954;51.914;8.420;2023-05-10T12:37:07;15.37;;;11.93;;
15708;SDS011;7954;51.914;8.420;2023-05-10T12:39:40;15.40;;;12.60;;
15708;SDS011;7954;51.914;8.420;2023-05-10T12:42:10;13.40;;;10.93;;
15708;SDS011;7954;51.914;8.420;2023-05-10T12:44:38;14.30;;;11.50;;
15708;SDS011;7954;51.914;8.420;2023-05-10T12:47:08;14.93;;;11.97;;
15708;SDS011;7954;51.914;8.420;2023-05-10T12:49:38;15.67;;;11.93;;
15708;SDS011;7954;51.914;8.420;2023-05-10T12:52:06;11.43;;;9.30;;
15708;SDS011;7954;51.914;8.420;2023-05-10T12:54:35;9.27;;;7.73;;
15708;SDS011;7954;51.914;8.420;2023-05-10T12:57:03;11.43;;;9.00;;
15708;SDS011;7954;51.914;8.420;2023-05-10T12:59:31;10.83;;;9.73;;
15708;SDS011;7954;51.914;8.420;2023-05-10T13:02:01;12.73;;;10.47;;
15708;SDS011;7954;51.914;8.420;2023-05-10T13:04:34;11.10;;;9.73;;
15708;SDS011;7954;51.914;8.420;2023-05-10T13:07:04;12.50;;;10.83;;
15708;SDS011;7954;51.914;8.420;2023-05-10T13:09:31;12.03;;;10.27;;
15708;SDS011;7954;51.914;8.420;2023-05-10T13:12:02;12.90;;;10.90;;
15708;SDS011;7954;51.914;8.420;2023-05-10T13:14:30;12.47;;;10.77;;
15708;SDS011;7954;51.914;8.420;2023-05-10T13:16:58;13.30;;;10.90;;
15708;SDS011;7954;51.914;8.420;2023-05-10T13:19:26;13.30;;;11.70;;
15708;SDS011;7954;51.914;8.420;2023-05-10T13:21:56;14.77;;;11.40;;
15708;SDS011;7954;51.914;8.420;2023-05-10T13:24:24;13.37;;;11.90;;
15708;SDS011;7954;51.914;8.420;2023-05-10T13:26:53;19.83;;;13.17;;
15708;SDS011;7954;51.914;8.420;2023-05-10T13:29:21;16.97;;;13.77;;
15708;SDS011;7954;51.914;8.420;2023-05-10T13:31:49;17.23;;;13.70;;
15708;SDS011;7954;51.914;8.420;2023-05-10T13:34:18;18.93;;;13.80;;
15708;SDS011;7954;51.914;8.420;2023-05-10T13:36:47;25.03;;;15.13;;
15708;SDS011;7954;51.914;8.420;2023-05-10T13:39:19;18.13;;;13.67;;
15708;SDS011;7954;51.914;8.420;2023-05-10T13:41:48;18.60;;;14.33;;
15708;SDS011;7954;51.914;8.420;2023-05-10T13:44:16;16.97;;;13.33;;
15708;SDS011;7954;51.914;8.420;2023-05-10T13:46:44;18.60;;;13.50;;
15708;SDS011;7954;51.914;8.420;2023-05-10T13:49:11;15.30;;;12.50;;
15708;SDS011;7954;51.914;8.420;2023-05-10T13:51:41;21.43;;;14.70;;
15708;SDS011;7954;51.914;8.420;2023-05-10T13:54:10;15.93;;;12.43;;
15708;SDS011;7954;51.914;8.420;2023-05-10T13:56:41;20.67;;;13.87;;
15708;SDS011;7954;51.914;8.420;2023-05-10T13:59:10;21.00;;;14.43;;
15708;SDS011;7954;51.914;8.420;2023-05-10T14:01:40;15.03;;;12.33;;
15708;SDS011;7954;51.914;8.420;2023-05-10T14:04:11;16.20;;;11.70;;
15708;SDS011;7954;51.914;8.420;2023-05-10T14:06:39;11.57;;;10.37;;
15708;SDS011;7954;51.914;8.420;2023-05-10T14:09:07;16.23;;;13.17;;
15708;SDS011;7954;51.914;8.420;2023-05-10T14:11:35;13.70;;;11.37;;
15708;SDS011;7954;51.914;8.420;2023-05-10T14:14:11;13.63;;;11.17;;
15708;SDS011;7954;51.914;8.420;2023-05-10T14:16:41;13.27;;;11.87;;
15708;SDS011;7954;51.914;8.420;2023-05-10T14:19:11;12.90;;;11.07;;
15708;SDS011;7954;51.914;8.420;2023-05-10T14:21:39;14.63;;;11.90;;
15708;SDS011;7954;51.914;8.420;2023-05-10T14:24:07;14.30;;;12.80;;
15708;SDS011;7954;51.914;8.420;2023-05-10T14:26:36;12.73;;;11.43;;
15708;SDS011;7954;51.914;8.420;2023-05-10T14:29:05;15.10;;;12.83;;
15708;SDS011;7954;51.914;8.420;2023-05-10T14:31:37;14.97;;;12.73;;
15708;SDS011;7954;51.914;8.420;2023-05-10T14:34:05;14.23;;;12.73;;
15708;SDS011;7954;51.914;8.420;2023-05-10T14:36:33;14.83;;;12.83;;
15708;SDS011;7954;51.914;8.420;2023-05-10T14:39:01;16.00;;;12.83;;
15708;SDS011;7954;51.914;8.420;2023-05-10T14:41:29;12.47;;;11.10;;
15708;SDS011;7954;51.914;8.420;2023-05-10T14:43:57;16.63;;;12.70;;
15708;SDS011;7954;51.914;8.420;2023-05-10T14:46:26;12.73;;;11.43;;
15708;SDS011;7954;51.914;8.420;2023-05-10T14:48:55;12.40;;;11.10;;
15708;SDS011;7954;51.914;8.420;2023-05-10T14:51:24;14.43;;;11.73;;
15708;SDS011;7954;51.914;8.420;2023-05-10T14:53:51;13.80;;;12.07;;
15708;SDS011;7954;51.914;8.420;2023-05-10T14:56:19;13.90;;;12.07;;
15708;SDS011;7954;51.914;8.420;2023-05-10T14:58:49;13.30;;;11.00;;
15708;SDS011;7954;51.914;8.420;2023-05-10T15:01:18;12.37;;;11.07;;
15708;SDS011;7954;51.914;8.420;2023-05-10T15:03:47;13.77;;;12.37;;
15708;SDS011;7954;51.914;8.420;2023-05-10T15:06:17;12.87;;;11.57;;
15708;SDS011;7954;51.914;8.420;2023-05-10T15:08:50;13.17;;;11.70;;
15708;SDS011;7954;51.914;8.420;2023-05-10T15:11:18;12.73;;;11.53;;
15708;SDS011;7954;51.914;8.420;2023-05-10T15:13:47;12.50;;;11.30;;
15708;SDS011;7954;51.914;8.420;2023-05-10T15:16:15;14.20;;;12.80;;
15708;SDS011;7954;51.914;8.420;2023-05-10T15:18:43;13.60;;;12.20;;